Terminal Aerodrome Forecast
Issued by NWS

Home | Current Version | Previous Version | Text Only | Print | Product List | Glossary On
Versions: 1 2 3 4 5 6 7 8 9 10 11 12 13 14
000
FTUS42 TJSJ 182300
TAFJBQ
TAF
TJBQ 182320Z 1900/1924 07012KT P6SM -RA SCT020 BKN050 BKN080
     FM190200 09007KT P6SM FEW025 SCT080
     FM190930 08006KT P6SM VCSH SCT022 BKN050
     FM191450 07014KT P6SM SCT030 SCT070
      AMD NOT SKED 1902/1911=

USA.gov is the U.S. government's official web portal to all federal, state and local government web resources and services.